createdAt,value
2023-02-08T09:42:40.419Z,4.10
2023-02-08T11:32:14.526Z,7.00
2023-02-08T11:52:46.352Z,15.80
2023-02-08T11:58:14.833Z,20.00
2023-02-08T12:03:27.598Z,20.60
2023-02-08T12:20:04.810Z,20.40
2023-02-08T13:56:01.284Z,17.90
2023-02-08T14:01:15.143Z,11.00
2023-02-08T14:06:26.187Z,10.60
2023-02-08T14:11:46.742Z,10.40
2023-02-08T14:17:04.241Z,10.20
2023-02-08T14:22:12.247Z,9.90
2023-02-08T14:27:32.613Z,9.80
2023-02-08T14:32:40.935Z,9.50
2023-02-08T14:37:44.941Z,9.20
2023-02-08T14:42:58.731Z,9.20
2023-02-08T14:48:21.284Z,9.20
2023-02-08T14:53:59.950Z,8.90
2023-02-08T14:59:09.243Z,8.90
2023-02-08T15:04:13.530Z,8.50
2023-02-08T15:09:23.248Z,8.10
2023-02-08T15:14:26.152Z,8.40
2023-02-08T15:19:38.577Z,8.30
2023-02-08T15:24:55.091Z,8.40
2023-02-08T15:29:57.432Z,8.30
2023-02-08T15:35:04.767Z,8.20
2023-02-08T15:40:07.691Z,8.20
2023-02-08T15:45:30.844Z,8.30
2023-02-08T15:50:33.928Z,8.10
2023-02-08T15:55:51.367Z,8.10
2023-02-08T16:00:54.054Z,8.10
2023-02-08T16:06:02.089Z,7.60
2023-02-08T16:11:20.975Z,7.20
2023-02-08T16:16:35.350Z,7.00
2023-02-08T16:21:42.361Z,6.90
2023-02-08T16:27:04.542Z,6.80
2023-02-08T16:32:32.092Z,6.70
2023-02-08T16:37:35.936Z,6.60
2023-02-08T16:42:40.555Z,6.20
2023-02-08T16:47:47.484Z,5.90
2023-02-08T16:53:01.596Z,6.00
2023-02-08T16:58:03.976Z,6.20
2023-02-08T17:03:06.111Z,5.90
2023-02-08T17:08:16.001Z,6.00
2023-02-08T17:13:21.179Z,5.80
2023-02-08T17:18:23.695Z,5.90
2023-02-08T17:23:27.012Z,5.90
2023-02-08T17:28:29.323Z,5.80
2023-02-08T17:33:36.437Z,5.80
2023-02-08T17:38:40.053Z,5.70
2023-02-08T17:43:42.242Z,5.20
2023-02-08T17:48:47.262Z,5.10
2023-02-08T17:53:51.433Z,4.90
2023-02-08T17:58:56.017Z,5.20
2023-02-08T18:04:01.013Z,5.20
2023-02-08T18:09:03.794Z,4.90
2023-02-08T18:14:06.271Z,4.60
2023-02-08T18:19:08.848Z,4.80
2023-02-08T18:54:32.452Z,4.70
2023-02-08T18:59:34.611Z,4.70
2023-02-08T19:04:38.956Z,4.80
2023-02-08T19:09:41.190Z,4.80
2023-02-08T19:14:44.089Z,4.80
2023-02-08T19:19:46.767Z,4.60
2023-02-08T19:24:48.906Z,4.50
